createdAt,value
2018-11-12T00:12:08.405Z,3.2
2018-11-12T00:27:10.687Z,2.5
2018-11-12T00:42:08.745Z,2.5
2018-11-12T00:57:23.460Z,2.9
2018-11-12T01:12:28.875Z,3.5
2018-11-12T01:27:14.972Z,2.6
2018-11-12T01:42:15.594Z,3.5
2018-11-12T01:57:22.058Z,3.3
2018-11-12T02:12:17.317Z,2.8
2018-11-12T02:26:54.071Z,2.5
2018-11-12T02:42:28.150Z,1.8
2018-11-12T02:57:23.224Z,1.5
2018-11-12T03:12:09.764Z,1.8
2018-11-12T03:27:08.265Z,2.3
2018-11-12T03:42:25.337Z,2.2
2018-11-12T03:57:31.994Z,1.3
2018-11-12T04:12:27.881Z,1.5
2018-11-12T04:27:07.227Z,1.9
2018-11-12T04:42:00.103Z,1
2018-11-12T04:57:34.346Z,1.1
2018-11-12T05:12:10.895Z,1.3
2018-11-12T05:27:48.334Z,1.8
2018-11-12T05:42:30.511Z,2.2
2018-11-12T05:57:07.216Z,2.3
2018-11-12T06:12:33.678Z,2.1
2018-11-12T06:27:23.953Z,1.9
2018-11-12T06:42:13.717Z,1.6
2018-11-12T06:58:07.391Z,4.7
2018-11-12T07:12:53.339Z,3.2
2018-11-12T07:27:41.494Z,4
2018-11-12T07:42:42.641Z,1.6
2018-11-12T07:57:59.065Z,1.7
2018-11-12T08:12:20.871Z,2.5
2018-11-12T08:28:02.314Z,3.4
2018-11-12T08:42:23.515Z,3.8
2018-11-12T08:57:24.964Z,2.9
2018-11-12T09:12:47.907Z,3
2018-11-12T09:27:23.751Z,3.2
2018-11-12T09:42:28.277Z,3.1
2018-11-12T09:49:05.361Z,3.1
2018-11-12T09:57:27.157Z,5.1
2018-11-12T10:12:32.023Z,4.1
2018-11-12T10:27:43.686Z,3.2
2018-11-12T10:42:59.290Z,2.5
2018-11-12T11:13:08.140Z,5.5
2018-11-12T11:28:03.655Z,5.3
2018-11-12T11:43:01.622Z,3.9
2018-11-12T11:55:43.663Z,3.9
2018-11-12T11:57:37.375Z,2.8
2018-11-12T12:12:24.869Z,6.2
2018-11-12T12:27:35.810Z,3.7
2018-11-12T12:55:41.540Z,4.1
2018-11-12T12:57:44.002Z,5.9
2018-11-12T13:12:37.801Z,6.2
2018-11-12T13:28:17.731Z,9.9
2018-11-12T13:36:53.972Z,9.9
2018-11-12T13:43:14.842Z,7.4
2018-11-12T13:58:26.287Z,9
2018-11-12T14:12:58.079Z,7.4
2018-11-12T14:25:52.697Z,7.4
2018-11-12T14:27:53.506Z,6.2
2018-11-12T14:35:19.279Z,6.2
2018-11-12T14:42:33.439Z,7.1
2018-11-12T14:58:01.663Z,5
2018-11-12T15:13:08.381Z,6.6
2018-11-12T15:35:22.658Z,8.5
2018-11-12T15:39:07.936Z,8.5
2018-11-12T15:43:07.904Z,8.8
2018-11-12T15:58:25.106Z,10.2
2018-11-12T16:12:55.985Z,12.1
2018-11-12T16:28:38.614Z,12.5
2018-11-12T16:43:10.419Z,7.9
2018-11-12T16:58:15.208Z,11
2018-11-12T17:12:54.601Z,11.2
2018-11-12T17:28:28.475Z,7.2
2018-11-12T17:43:13.038Z,6.3
2018-11-12T17:58:48.180Z,8
2018-11-12T18:13:30.936Z,5.6
2018-11-12T18:28:03.110Z,6.3
2018-11-12T18:42:54.937Z,5.2
2018-11-12T18:58:46.040Z,9.2
2018-11-12T19:13:17.876Z,5.3
2018-11-12T19:28:13.622Z,8.6
2018-11-12T19:43:55.883Z,10.2
2018-11-12T19:58:25.003Z,7.8
2018-11-12T20:13:58.481Z,9.2
2018-11-12T20:28:25.905Z,6.7
2018-11-12T20:43:51.024Z,6.8
2018-11-12T20:58:21.071Z,7.4
2018-11-12T21:13:32.823Z,4.5
2018-11-12T21:28:57.560Z,5.4
2018-11-12T21:43:13.688Z,6.8
2018-11-12T21:58:53.638Z,3.8
2018-11-12T22:14:08.804Z,6.2
2018-11-12T22:28:38.554Z,5.2
2018-11-12T22:43:23.788Z,3.7
2018-11-12T22:58:57.591Z,12.3
2018-11-12T23:13:26.585Z,2.6
2018-11-12T23:28:43.108Z,11.6
2018-11-12T23:44:04.941Z,25
